sensor_id;sensor_type;location;lat;lon;timestamp;P1;durP1;ratioP1;P2;durP2;ratioP2
1106;SDS011;540;49.448;8.612;2022-10-31T00:01:21;10.30;;;4.20;;
1106;SDS011;540;49.448;8.612;2022-10-31T00:03:50;7.38;;;3.72;;
1106;SDS011;540;49.448;8.612;2022-10-31T00:06:20;9.75;;;4.25;;
1106;SDS011;540;49.448;8.612;2022-10-31T00:08:51;12.13;;;4.72;;
1106;SDS011;540;49.448;8.612;2022-10-31T00:11:20;9.75;;;4.28;;
1106;SDS011;540;49.448;8.612;2022-10-31T00:13:48;6.15;;;3.65;;
1106;SDS011;540;49.448;8.612;2022-10-31T00:16:16;14.07;;;3.90;;
1106;SDS011;540;49.448;8.612;2022-10-31T00:18:47;12.85;;;4.18;;
1106;SDS011;540;49.448;8.612;2022-10-31T00:21:15;15.27;;;5.07;;
1106;SDS011;540;49.448;8.612;2022-10-31T00:23:44;12.23;;;4.00;;
1106;SDS011;540;49.448;8.612;2022-10-31T00:26:12;10.50;;;4.40;;
1106;SDS011;540;49.448;8.612;2022-10-31T00:28:40;12.43;;;4.65;;
1106;SDS011;540;49.448;8.612;2022-10-31T00:31:08;7.70;;;4.50;;
1106;SDS011;540;49.448;8.612;2022-10-31T00:33:37;8.68;;;3.58;;
1106;SDS011;540;49.448;8.612;2022-10-31T00:36:06;7.90;;;4.30;;
1106;SDS011;540;49.448;8.612;2022-10-31T00:38:37;9.77;;;4.45;;
1106;SDS011;540;49.448;8.612;2022-10-31T00:41:06;8.93;;;4.43;;
1106;SDS011;540;49.448;8.612;2022-10-31T00:43:34;8.90;;;3.90;;
1106;SDS011;540;49.448;8.612;2022-10-31T00:46:01;8.77;;;3.90;;
1106;SDS011;540;49.448;8.612;2022-10-31T00:48:29;8.93;;;4.00;;
1106;SDS011;540;49.448;8.612;2022-10-31T00:50:57;7.75;;;4.00;;
1106;SDS011;540;49.448;8.612;2022-10-31T00:53:25;8.27;;;4.00;;
1106;SDS011;540;49.448;8.612;2022-10-31T00:55:53;10.43;;;4.38;;
1106;SDS011;540;49.448;8.612;2022-10-31T00:58:22;11.90;;;4.32;;
1106;SDS011;540;49.448;8.612;2022-10-31T01:00:50;11.55;;;4.55;;
1106;SDS011;540;49.448;8.612;2022-10-31T01:03:22;10.27;;;4.38;;
1106;SDS011;540;49.448;8.612;2022-10-31T01:05:57;8.52;;;3.92;;
1106;SDS011;540;49.448;8.612;2022-10-31T01:08:26;10.02;;;4.53;;
1106;SDS011;540;49.448;8.612;2022-10-31T01:11:04;9.68;;;4.30;;
1106;SDS011;540;49.448;8.612;2022-10-31T01:13:36;11.00;;;3.78;;
1106;SDS011;540;49.448;8.612;2022-10-31T01:16:05;10.63;;;4.47;;
1106;SDS011;540;49.448;8.612;2022-10-31T01:18:34;8.55;;;3.88;;
1106;SDS011;540;49.448;8.612;2022-10-31T01:21:03;7.68;;;3.78;;
1106;SDS011;540;49.448;8.612;2022-10-31T01:23:33;10.15;;;4.13;;
1106;SDS011;540;49.448;8.612;2022-10-31T01:26:02;16.52;;;5.20;;
1106;SDS011;540;49.448;8.612;2022-10-31T01:28:31;9.40;;;3.90;;
1106;SDS011;540;49.448;8.612;2022-10-31T01:31:04;8.40;;;4.38;;
1106;SDS011;540;49.448;8.612;2022-10-31T01:33:33;7.80;;;4.18;;
1106;SDS011;540;49.448;8.612;2022-10-31T01:36:10;14.15;;;5.05;;
1106;SDS011;540;49.448;8.612;2022-10-31T01:38:39;7.53;;;4.43;;
1106;SDS011;540;49.448;8.612;2022-10-31T01:41:07;12.70;;;4.38;;
1106;SDS011;540;49.448;8.612;2022-10-31T01:43:47;13.13;;;5.00;;
1106;SDS011;540;49.448;8.612;2022-10-31T01:46:19;10.95;;;4.30;;
1106;SDS011;540;49.448;8.612;2022-10-31T01:48:50;9.85;;;5.55;;
1106;SDS011;540;49.448;8.612;2022-10-31T01:51:19;13.07;;;6.70;;
1106;SDS011;540;49.448;8.612;2022-10-31T01:53:50;10.77;;;5.57;;
1106;SDS011;540;49.448;8.612;2022-10-31T01:56:20;13.02;;;5.70;;
1106;SDS011;540;49.448;8.612;2022-10-31T01:58:49;8.65;;;4.80;;
1106;SDS011;540;49.448;8.612;2022-10-31T02:01:18;9.18;;;4.88;;
1106;SDS011;540;49.448;8.612;2022-10-31T02:03:46;9.40;;;4.43;;
1106;SDS011;540;49.448;8.612;2022-10-31T02:06:18;13.68;;;4.90;;
1106;SDS011;540;49.448;8.612;2022-10-31T02:08:54;11.73;;;4.25;;
1106;SDS011;540;49.448;8.612;2022-10-31T02:11:24;7.95;;;4.28;;
1106;SDS011;540;49.448;8.612;2022-10-31T02:13:54;9.13;;;4.63;;
1106;SDS011;540;49.448;8.612;2022-10-31T02:16:24;9.48;;;4.35;;
1106;SDS011;540;49.448;8.612;2022-10-31T02:18:51;8.10;;;4.50;;
1106;SDS011;540;49.448;8.612;2022-10-31T02:21:21;12.73;;;4.53;;
1106;SDS011;540;49.448;8.612;2022-10-31T02:24:17;9.65;;;4.00;;
1106;SDS011;540;49.448;8.612;2022-10-31T02:27:11;6.82;;;4.25;;
1106;SDS011;540;49.448;8.612;2022-10-31T02:32:43;10.65;;;4.93;;
1106;SDS011;540;49.448;8.612;2022-10-31T02:35:27;8.48;;;3.88;;
1106;SDS011;540;49.448;8.612;2022-10-31T02:38:05;9.48;;;4.00;;
1106;SDS011;540;49.448;8.612;2022-10-31T02:40:42;6.85;;;4.68;;
1106;SDS011;540;49.448;8.612;2022-10-31T02:43:19;8.32;;;4.20;;
1106;SDS011;540;49.448;8.612;2022-10-31T02:45:48;14.32;;;4.55;;
1106;SDS011;540;49.448;8.612;2022-10-31T02:48:23;7.78;;;3.65;;
1106;SDS011;540;49.448;8.612;2022-10-31T02:50:55;11.32;;;4.93;;
1106;SDS011;540;49.448;8.612;2022-10-31T02:53:26;11.43;;;4.60;;
1106;SDS011;540;49.448;8.612;2022-10-31T02:55:58;13.73;;;4.30;;
1106;SDS011;540;49.448;8.612;2022-10-31T02:58:29;9.05;;;4.07;;
1106;SDS011;540;49.448;8.612;2022-10-31T03:04:25;11.15;;;4.18;;
1106;SDS011;540;49.448;8.612;2022-10-31T03:07:06;7.32;;;3.90;;
1106;SDS011;540;49.448;8.612;2022-10-31T03:09:39;7.75;;;4.18;;
1106;SDS011;540;49.448;8.612;2022-10-31T03:12:17;12.18;;;4.72;;
1106;SDS011;540;49.448;8.612;2022-10-31T03:14:54;9.55;;;4.60;;
1106;SDS011;540;49.448;8.612;2022-10-31T03:17:33;6.68;;;3.85;;
1106;SDS011;540;49.448;8.612;2022-10-31T03:20:06;12.18;;;4.43;;
1106;SDS011;540;49.448;8.612;2022-10-31T03:22:37;10.27;;;4.20;;
1106;SDS011;540;49.448;8.612;2022-10-31T03:25:07;12.52;;;4.40;;
1106;SDS011;540;49.448;8.612;2022-10-31T03:27:36;10.43;;;4.35;;
1106;SDS011;540;49.448;8.612;2022-10-31T03:30:06;9.82;;;4.50;;
1106;SDS011;540;49.448;8.612;2022-10-31T03:32:36;9.73;;;4.00;;
1106;SDS011;540;49.448;8.612;2022-10-31T03:35:10;9.70;;;4.50;;
1106;SDS011;540;49.448;8.612;2022-10-31T03:37:42;12.82;;;4.10;;
1106;SDS011;540;49.448;8.612;2022-10-31T03:40:11;9.60;;;4.35;;
1106;SDS011;540;49.448;8.612;2022-10-31T03:42:44;7.13;;;4.15;;
1106;SDS011;540;49.448;8.612;2022-10-31T03:45:19;9.15;;;5.07;;
1106;SDS011;540;49.448;8.612;2022-10-31T03:47:50;7.53;;;4.63;;
1106;SDS011;540;49.448;8.612;2022-10-31T03:50:21;8.38;;;4.32;;
1106;SDS011;540;49.448;8.612;2022-10-31T03:52:52;7.10;;;4.47;;
1106;SDS011;540;49.448;8.612;2022-10-31T03:55:25;7.28;;;4.38;;
1106;SDS011;540;49.448;8.612;2022-10-31T03:57:57;7.07;;;4.05;;
1106;SDS011;540;49.448;8.612;2022-10-31T04:00:29;10.38;;;4.50;;
1106;SDS011;540;49.448;8.612;2022-10-31T04:03:01;10.95;;;4.85;;
1106;SDS011;540;49.448;8.612;2022-10-31T04:05:34;6.57;;;3.95;;
1106;SDS011;540;49.448;8.612;2022-10-31T04:08:03;9.43;;;4.82;;
1106;SDS011;540;49.448;8.612;2022-10-31T04:10:35;10.43;;;4.85;;
1106;SDS011;540;49.448;8.612;2022-10-31T04:13:05;10.40;;;4.70;;
1106;SDS011;540;49.448;8.612;2022-10-31T04:15:35;10.27;;;4.63;;
1106;SDS011;540;49.448;8.612;2022-10-31T04:18:05;12.40;;;6.03;;
1106;SDS011;540;49.448;8.612;2022-10-31T04:20:35;9.77;;;4.65;;
1106;SDS011;540;49.448;8.612;2022-10-31T04:23:04;11.00;;;4.80;;
1106;SDS011;540;49.448;8.612;2022-10-31T04:25:38;10.75;;;5.07;;
1106;SDS011;540;49.448;8.612;2022-10-31T04:28:06;12.75;;;4.30;;
1106;SDS011;540;49.448;8.612;2022-10-31T04:30:34;8.65;;;4.68;;
1106;SDS011;540;49.448;8.612;2022-10-31T04:33:02;14.23;;;5.00;;
1106;SDS011;540;49.448;8.612;2022-10-31T04:35:29;9.98;;;4.85;;
1106;SDS011;540;49.448;8.612;2022-10-31T04:37:59;7.03;;;4.57;;
1106;SDS011;540;49.448;8.612;2022-10-31T04:40:26;12.35;;;5.72;;
1106;SDS011;540;49.448;8.612;2022-10-31T04:42:54;9.07;;;4.70;;
1106;SDS011;540;49.448;8.612;2022-10-31T04:45:22;10.20;;;5.22;;
1106;SDS011;540;49.448;8.612;2022-10-31T04:47:50;7.10;;;4.22;;
1106;SDS011;540;49.448;8.612;2022-10-31T04:50:17;10.00;;;4.75;;
1106;SDS011;540;49.448;8.612;2022-10-31T04:52:45;10.35;;;5.18;;
1106;SDS011;540;49.448;8.612;2022-10-31T04:55:15;11.65;;;5.20;;
1106;SDS011;540;49.448;8.612;2022-10-31T04:57:43;8.27;;;5.15;;
1106;SDS011;540;49.448;8.612;2022-10-31T05:00:13;11.85;;;5.50;;
1106;SDS011;540;49.448;8.612;2022-10-31T05:02:42;13.20;;;5.40;;
1106;SDS011;540;49.448;8.612;2022-10-31T05:05:11;6.47;;;4.60;;
1106;SDS011;540;49.448;8.612;2022-10-31T05:07:39;11.85;;;5.22;;
1106;SDS011;540;49.448;8.612;2022-10-31T05:10:08;7.18;;;4.88;;
1106;SDS011;540;49.448;8.612;2022-10-31T05:12:38;10.85;;;5.55;;
1106;SDS011;540;49.448;8.612;2022-10-31T05:15:13;15.95;;;6.88;;
1106;SDS011;540;49.448;8.612;2022-10-31T05:17:42;12.38;;;5.75;;
1106;SDS011;540;49.448;8.612;2022-10-31T05:20:10;14.15;;;5.50;;
1106;SDS011;540;49.448;8.612;2022-10-31T05:22:41;8.48;;;4.75;;
1106;SDS011;540;49.448;8.612;2022-10-31T05:25:09;9.82;;;5.60;;
1106;SDS011;540;49.448;8.612;2022-10-31T05:27:39;6.47;;;4.43;;
1106;SDS011;540;49.448;8.612;2022-10-31T05:30:07;6.57;;;3.60;;
1106;SDS011;540;49.448;8.612;2022-10-31T05:32:37;8.02;;;3.63;;
1106;SDS011;540;49.448;8.612;2022-10-31T05:35:06;4.03;;;3.00;;
1106;SDS011;540;49.448;8.612;2022-10-31T05:37:35;7.05;;;3.65;;
1106;SDS011;540;49.448;8.612;2022-10-31T05:40:03;11.82;;;5.07;;
1106;SDS011;540;49.448;8.612;2022-10-31T05:42:33;9.45;;;5.13;;
1106;SDS011;540;49.448;8.612;2022-10-31T05:45:03;7.03;;;4.32;;
1106;SDS011;540;49.448;8.612;2022-10-31T05:47:31;11.43;;;4.65;;
1106;SDS011;540;49.448;8.612;2022-10-31T05:49:59;11.50;;;4.32;;
1106;SDS011;540;49.448;8.612;2022-10-31T05:52:27;9.40;;;5.00;;
1106;SDS011;540;49.448;8.612;2022-10-31T05:54:54;15.25;;;5.85;;
1106;SDS011;540;49.448;8.612;2022-10-31T05:57:22;10.38;;;5.55;;
1106;SDS011;540;49.448;8.612;2022-10-31T05:59:50;11.27;;;5.30;;
1106;SDS011;540;49.448;8.612;2022-10-31T06:02:21;9.10;;;4.90;;
1106;SDS011;540;49.448;8.612;2022-10-31T06:04:49;9.75;;;5.75;;
1106;SDS011;540;49.448;8.612;2022-10-31T06:07:17;12.20;;;5.32;;
1106;SDS011;540;49.448;8.612;2022-10-31T06:09:45;16.70;;;5.97;;
1106;SDS011;540;49.448;8.612;2022-10-31T06:12:13;10.93;;;5.57;;
1106;SDS011;540;49.448;8.612;2022-10-31T06:14:40;12.95;;;5.30;;
1106;SDS011;540;49.448;8.612;2022-10-31T06:17:08;15.07;;;5.97;;
1106;SDS011;540;49.448;8.612;2022-10-31T06:19:37;23.33;;;7.68;;
1106;SDS011;540;49.448;8.612;2022-10-31T06:22:05;26.90;;;8.18;;
1106;SDS011;540;49.448;8.612;2022-10-31T06:24:33;30.50;;;10.73;;
1106;SDS011;540;49.448;8.612;2022-10-31T06:27:01;37.00;;;10.65;;
1106;SDS011;540;49.448;8.612;2022-10-31T06:29:28;28.05;;;9.63;;
1106;SDS011;540;49.448;8.612;2022-10-31T06:31:56;30.02;;;10.43;;
1106;SDS011;540;49.448;8.612;2022-10-31T06:34:24;35.00;;;11.80;;
1106;SDS011;540;49.448;8.612;2022-10-31T06:36:53;31.85;;;10.75;;
1106;SDS011;540;49.448;8.612;2022-10-31T06:39:21;27.92;;;9.70;;
1106;SDS011;540;49.448;8.612;2022-10-31T06:41:48;16.65;;;7.05;;
1106;SDS011;540;49.448;8.612;2022-10-31T06:44:16;19.92;;;6.20;;
1106;SDS011;540;49.448;8.612;2022-10-31T06:46:45;12.32;;;5.78;;
1106;SDS011;540;49.448;8.612;2022-10-31T06:49:13;16.08;;;5.57;;
1106;SDS011;540;49.448;8.612;2022-10-31T06:51:41;11.65;;;5.40;;
1106;SDS011;540;49.448;8.612;2022-10-31T06:54:10;21.10;;;7.28;;
1106;SDS011;540;49.448;8.612;2022-10-31T06:56:38;21.38;;;7.47;;
1106;SDS011;540;49.448;8.612;2022-10-31T06:59:06;18.05;;;7.78;;
1106;SDS011;540;49.448;8.612;2022-10-31T07:01:34;25.40;;;9.80;;
1106;SDS011;540;49.448;8.612;2022-10-31T07:04:02;25.08;;;13.00;;
1106;SDS011;540;49.448;8.612;2022-10-31T07:06:29;26.02;;;11.98;;
1106;SDS011;540;49.448;8.612;2022-10-31T07:08:57;19.63;;;11.45;;
1106;SDS011;540;49.448;8.612;2022-10-31T07:11:26;28.60;;;13.23;;
1106;SDS011;540;49.448;8.612;2022-10-31T07:13:54;25.80;;;10.45;;
1106;SDS011;540;49.448;8.612;2022-10-31T07:16:22;29.52;;;10.70;;
1106;SDS011;540;49.448;8.612;2022-10-31T07:18:49;28.05;;;10.45;;
1106;SDS011;540;49.448;8.612;2022-10-31T07:21:17;20.85;;;9.30;;
1106;SDS011;540;49.448;8.612;2022-10-31T07:23:46;17.88;;;9.10;;
1106;SDS011;540;49.448;8.612;2022-10-31T07:26:15;24.08;;;10.50;;
1106;SDS011;540;49.448;8.612;2022-10-31T07:28:45;18.77;;;8.68;;
1106;SDS011;540;49.448;8.612;2022-10-31T07:31:13;22.85;;;7.47;;
1106;SDS011;540;49.448;8.612;2022-10-31T07:33:40;13.70;;;7.40;;
1106;SDS011;540;49.448;8.612;2022-10-31T07:36:08;13.77;;;7.07;;
1106;SDS011;540;49.448;8.612;2022-10-31T07:38:36;15.30;;;7.22;;
1106;SDS011;540;49.448;8.612;2022-10-31T07:41:04;10.15;;;6.45;;
1106;SDS011;540;49.448;8.612;2022-10-31T07:43:31;9.23;;;5.47;;
1106;SDS011;540;49.448;8.612;2022-10-31T07:46:01;15.20;;;4.75;;
1106;SDS011;540;49.448;8.612;2022-10-31T07:48:28;9.40;;;4.72;;
1106;SDS011;540;49.448;8.612;2022-10-31T07:50:56;8.07;;;4.75;;
1106;SDS011;540;49.448;8.612;2022-10-31T07:53:24;6.88;;;4.70;;
1106;SDS011;540;49.448;8.612;2022-10-31T07:55:51;10.73;;;5.00;;
1106;SDS011;540;49.448;8.612;2022-10-31T07:58:19;7.10;;;3.90;;
1106;SDS011;540;49.448;8.612;2022-10-31T08:00:47;6.30;;;4.00;;
1106;SDS011;540;49.448;8.612;2022-10-31T08:03:17;7.28;;;4.00;;
1106;SDS011;540;49.448;8.612;2022-10-31T08:05:45;10.82;;;4.80;;
1106;SDS011;540;49.448;8.612;2022-10-31T08:08:13;10.07;;;4.50;;
1106;SDS011;540;49.448;8.612;2022-10-31T08:10:42;38.88;;;25.23;;
1106;SDS011;540;49.448;8.612;2022-10-31T08:13:11;29.80;;;18.73;;
1106;SDS011;540;49.448;8.612;2022-10-31T08:15:40;15.80;;;7.40;;
1106;SDS011;540;49.448;8.612;2022-10-31T08:18:10;8.68;;;4.38;;
1106;SDS011;540;49.448;8.612;2022-10-31T08:20:41;8.70;;;4.57;;
1106;SDS011;540;49.448;8.612;2022-10-31T08:23:11;8.25;;;4.50;;
1106;SDS011;540;49.448;8.612;2022-10-31T08:25:39;8.45;;;4.30;;
1106;SDS011;540;49.448;8.612;2022-10-31T08:28:08;9.43;;;4.45;;
1106;SDS011;540;49.448;8.612;2022-10-31T08:30:37;9.38;;;3.95;;
1106;SDS011;540;49.448;8.612;2022-10-31T08:33:08;9.20;;;4.22;;
1106;SDS011;540;49.448;8.612;2022-10-31T08:35:37;6.28;;;4.57;;
1106;SDS011;540;49.448;8.612;2022-10-31T08:38:08;8.93;;;4.57;;
1106;SDS011;540;49.448;8.612;2022-10-31T08:40:37;12.48;;;4.57;;
1106;SDS011;540;49.448;8.612;2022-10-31T08:43:08;11.98;;;5.75;;
1106;SDS011;540;49.448;8.612;2022-10-31T08:45:38;9.18;;;4.45;;
1106;SDS011;540;49.448;8.612;2022-10-31T08:48:08;8.10;;;5.30;;
1106;SDS011;540;49.448;8.612;2022-10-31T08:50:37;13.23;;;5.95;;
1106;SDS011;540;49.448;8.612;2022-10-31T08:53:08;9.20;;;5.00;;
1106;SDS011;540;49.448;8.612;2022-10-31T08:55:38;11.02;;;5.28;;
1106;SDS011;540;49.448;8.612;2022-10-31T08:58:07;7.32;;;5.20;;
1106;SDS011;540;49.448;8.612;2022-10-31T09:00:37;11.57;;;6.55;;
1106;SDS011;540;49.448;8.612;2022-10-31T09:03:06;11.07;;;6.50;;
1106;SDS011;540;49.448;8.612;2022-10-31T09:05:37;7.97;;;5.45;;
1106;SDS011;540;49.448;8.612;2022-10-31T09:08:05;13.18;;;6.00;;
1106;SDS011;540;49.448;8.612;2022-10-31T09:10:42;9.27;;;5.60;;
1106;SDS011;540;49.448;8.612;2022-10-31T09:13:12;8.57;;;6.25;;
1106;SDS011;540;49.448;8.612;2022-10-31T09:15:41;16.65;;;5.78;;
1106;SDS011;540;49.448;8.612;2022-10-31T09:18:11;10.07;;;5.75;;
1106;SDS011;540;49.448;8.612;2022-10-31T09:20:40;10.43;;;5.10;;
1106;SDS011;540;49.448;8.612;2022-10-31T09:23:09;10.50;;;5.72;;
1106;SDS011;540;49.448;8.612;2022-10-31T09:25:38;11.32;;;6.32;;
1106;SDS011;540;49.448;8.612;2022-10-31T09:28:14;10.75;;;5.93;;
1106;SDS011;540;49.448;8.612;2022-10-31T09:30:45;13.90;;;6.03;;
1106;SDS011;540;49.448;8.612;2022-10-31T09:33:14;9.75;;;5.95;;
1106;SDS011;540;49.448;8.612;2022-10-31T09:35:42;15.55;;;6.28;;
1106;SDS011;540;49.448;8.612;2022-10-31T09:38:10;11.57;;;6.28;;
1106;SDS011;540;49.448;8.612;2022-10-31T09:40:41;15.43;;;6.78;;
1106;SDS011;540;49.448;8.612;2022-10-31T09:43:17;13.15;;;6.72;;
1106;SDS011;540;49.448;8.612;2022-10-31T09:45:53;12.15;;;7.35;;
1106;SDS011;540;49.448;8.612;2022-10-31T09:48:31;12.57;;;5.90;;
1106;SDS011;540;49.448;8.612;2022-10-31T09:51:08;12.30;;;6.15;;
1106;SDS011;540;49.448;8.612;2022-10-31T09:53:39;11.27;;;7.10;;
1106;SDS011;540;49.448;8.612;2022-10-31T09:56:10;10.27;;;6.63;;
1106;SDS011;540;49.448;8.612;2022-10-31T09:58:43;11.57;;;6.93;;
1106;SDS011;540;49.448;8.612;2022-10-31T10:01:27;14.32;;;9.25;;
1106;SDS011;540;49.448;8.612;2022-10-31T10:04:00;13.63;;;6.65;;
1106;SDS011;540;49.448;8.612;2022-10-31T10:06:32;13.40;;;6.32;;
1106;SDS011;540;49.448;8.612;2022-10-31T10:09:02;14.35;;;6.90;;
1106;SDS011;540;49.448;8.612;2022-10-31T10:11:33;11.95;;;6.60;;
1106;SDS011;540;49.448;8.612;2022-10-31T10:14:21;16.02;;;7.22;;
1106;SDS011;540;49.448;8.612;2022-10-31T10:17:09;11.65;;;6.45;;
1106;SDS011;540;49.448;8.612;2022-10-31T10:19:50;10.88;;;7.20;;
1106;SDS011;540;49.448;8.612;2022-10-31T10:22:39;16.13;;;7.47;;
1106;SDS011;540;49.448;8.612;2022-10-31T10:25:19;15.05;;;7.57;;
1106;SDS011;540;49.448;8.612;2022-10-31T10:27:54;16.88;;;8.27;;
1106;SDS011;540;49.448;8.612;2022-10-31T10:30:35;16.50;;;7.13;;
1106;SDS011;540;49.448;8.612;2022-10-31T10:33:09;14.57;;;7.82;;
1106;SDS011;540;49.448;8.612;2022-10-31T10:35:40;15.52;;;9.25;;
1106;SDS011;540;49.448;8.612;2022-10-31T10:38:14;12.93;;;8.30;;
1106;SDS011;540;49.448;8.612;2022-10-31T10:40:46;13.32;;;7.57;;
1106;SDS011;540;49.448;8.612;2022-10-31T10:43:19;15.23;;;7.75;;
1106;SDS011;540;49.448;8.612;2022-10-31T10:45:53;14.25;;;8.40;;
1106;SDS011;540;49.448;8.612;2022-10-31T10:48:58;17.98;;;8.73;;
1106;SDS011;540;49.448;8.612;2022-10-31T10:51:34;11.75;;;7.15;;
1106;SDS011;540;49.448;8.612;2022-10-31T10:54:33;19.17;;;7.55;;
1106;SDS011;540;49.448;8.612;2022-10-31T10:57:11;12.82;;;8.35;;
1106;SDS011;540;49.448;8.612;2022-10-31T10:59:47;15.15;;;8.50;;
1106;SDS011;540;49.448;8.612;2022-10-31T11:02:17;18.95;;;9.02;;
1106;SDS011;540;49.448;8.612;2022-10-31T11:04:47;14.68;;;8.20;;
1106;SDS011;540;49.448;8.612;2022-10-31T11:07:18;17.88;;;7.78;;
1106;SDS011;540;49.448;8.612;2022-10-31T11:09:45;17.35;;;9.00;;
1106;SDS011;540;49.448;8.612;2022-10-31T11:12:17;15.55;;;9.00;;
1106;SDS011;540;49.448;8.612;2022-10-31T11:14:50;19.13;;;8.45;;
1106;SDS011;540;49.448;8.612;2022-10-31T11:17:27;15.95;;;7.65;;
1106;SDS011;540;49.448;8.612;2022-10-31T11:20:01;15.43;;;8.63;;
1106;SDS011;540;49.448;8.612;2022-10-31T11:22:31;16.80;;;8.00;;
1106;SDS011;540;49.448;8.612;2022-10-31T11:24:59;17.25;;;8.40;;
1106;SDS011;540;49.448;8.612;2022-10-31T11:27:27;18.70;;;9.27;;
1106;SDS011;540;49.448;8.612;2022-10-31T11:30:03;16.58;;;8.05;;
1106;SDS011;540;49.448;8.612;2022-10-31T11:32:33;18.27;;;9.00;;
1106;SDS011;540;49.448;8.612;2022-10-31T11:35:02;15.85;;;8.88;;
1106;SDS011;540;49.448;8.612;2022-10-31T11:37:39;15.68;;;8.73;;
1106;SDS011;540;49.448;8.612;2022-10-31T11:40:15;21.10;;;8.57;;
1106;SDS011;540;49.448;8.612;2022-10-31T11:42:45;17.02;;;9.40;;
1106;SDS011;540;49.448;8.612;2022-10-31T11:45:14;18.02;;;9.55;;
1106;SDS011;540;49.448;8.612;2022-10-31T11:47:45;15.43;;;9.10;;
1106;SDS011;540;49.448;8.612;2022-10-31T11:50:20;22.50;;;8.88;;
1106;SDS011;540;49.448;8.612;2022-10-31T11:52:51;22.08;;;8.18;;
1106;SDS011;540;49.448;8.612;2022-10-31T11:55:29;18.80;;;9.18;;
1106;SDS011;540;49.448;8.612;2022-10-31T11:57:59;21.15;;;8.98;;
1106;SDS011;540;49.448;8.612;2022-10-31T12:00:28;22.50;;;9.70;;
1106;SDS011;540;49.448;8.612;2022-10-31T12:03:09;19.35;;;9.35;;
1106;SDS011;540;49.448;8.612;2022-10-31T12:05:41;16.70;;;9.27;;
1106;SDS011;540;49.448;8.612;2022-10-31T12:08:11;16.10;;;8.85;;
1106;SDS011;540;49.448;8.612;2022-10-31T12:10:42;20.10;;;9.93;;
1106;SDS011;540;49.448;8.612;2022-10-31T12:13:26;24.42;;;12.07;;
1106;SDS011;540;49.448;8.612;2022-10-31T12:16:01;23.58;;;9.82;;
1106;SDS011;540;49.448;8.612;2022-10-31T12:18:38;19.48;;;9.80;;
1106;SDS011;540;49.448;8.612;2022-10-31T12:21:18;24.15;;;12.68;;
1106;SDS011;540;49.448;8.612;2022-10-31T12:23:57;20.73;;;11.13;;
1106;SDS011;540;49.448;8.612;2022-10-31T12:26:34;19.75;;;9.18;;
1106;SDS011;540;49.448;8.612;2022-10-31T12:29:13;14.88;;;7.80;;
1106;SDS011;540;49.448;8.612;2022-10-31T12:31:57;18.13;;;8.48;;
1106;SDS011;540;49.448;8.612;2022-10-31T12:34:49;21.27;;;10.43;;
1106;SDS011;540;49.448;8.612;2022-10-31T12:37:44;15.27;;;8.82;;
1106;SDS011;540;49.448;8.612;2022-10-31T12:40:25;21.45;;;10.40;;
1106;SDS011;540;49.448;8.612;2022-10-31T12:43:12;16.48;;;8.48;;
1106;SDS011;540;49.448;8.612;2022-10-31T12:45:51;16.73;;;8.88;;
1106;SDS011;540;49.448;8.612;2022-10-31T12:51:15;23.17;;;10.27;;
1106;SDS011;540;49.448;8.612;2022-10-31T12:53:53;19.88;;;10.00;;
1106;SDS011;540;49.448;8.612;2022-10-31T12:56:36;18.98;;;8.68;;
1106;SDS011;540;49.448;8.612;2022-10-31T12:59:10;18.10;;;8.98;;
1106;SDS011;540;49.448;8.612;2022-10-31T13:01:45;20.80;;;11.38;;
1106;SDS011;540;49.448;8.612;2022-10-31T13:04:17;22.83;;;9.95;;
1106;SDS011;540;49.448;8.612;2022-10-31T13:06:56;17.33;;;9.60;;
1106;SDS011;540;49.448;8.612;2022-10-31T13:09:27;26.42;;;10.18;;
1106;SDS011;540;49.448;8.612;2022-10-31T13:12:01;19.50;;;11.75;;
1106;SDS011;540;49.448;8.612;2022-10-31T13:14:35;30.95;;;17.90;;
1106;SDS011;540;49.448;8.612;2022-10-31T13:17:06;25.45;;;12.45;;
1106;SDS011;540;49.448;8.612;2022-10-31T13:19:38;20.77;;;12.05;;
1106;SDS011;540;49.448;8.612;2022-10-31T13:22:10;21.98;;;10.73;;
1106;SDS011;540;49.448;8.612;2022-10-31T13:24:44;25.38;;;12.60;;
1106;SDS011;540;49.448;8.612;2022-10-31T13:27:20;17.63;;;10.90;;
1106;SDS011;540;49.448;8.612;2022-10-31T13:29:53;14.60;;;8.90;;
1106;SDS011;540;49.448;8.612;2022-10-31T13:32:28;19.95;;;10.23;;
1106;SDS011;540;49.448;8.612;2022-10-31T13:35:04;21.92;;;9.90;;
1106;SDS011;540;49.448;8.612;2022-10-31T13:37:42;16.73;;;9.77;;
1106;SDS011;540;49.448;8.612;2022-10-31T13:40:32;19.50;;;9.68;;
1106;SDS011;540;49.448;8.612;2022-10-31T13:43:05;18.45;;;10.55;;
1106;SDS011;540;49.448;8.612;2022-10-31T13:45:47;16.35;;;8.93;;
1106;SDS011;540;49.448;8.612;2022-10-31T13:48:32;16.08;;;9.68;;
1106;SDS011;540;49.448;8.612;2022-10-31T13:51:03;15.75;;;8.90;;
1106;SDS011;540;49.448;8.612;2022-10-31T13:56:25;31.58;;;9.93;;
1106;SDS011;540;49.448;8.612;2022-10-31T13:58:59;20.55;;;9.95;;
1106;SDS011;540;49.448;8.612;2022-10-31T14:01:45;18.45;;;9.18;;
1106;SDS011;540;49.448;8.612;2022-10-31T14:04:16;20.20;;;9.57;;
1106;SDS011;540;49.448;8.612;2022-10-31T14:06:55;26.98;;;9.98;;
1106;SDS011;540;49.448;8.612;2022-10-31T14:09:30;22.57;;;11.63;;
1106;SDS011;540;49.448;8.612;2022-10-31T14:12:04;14.57;;;10.10;;
1106;SDS011;540;49.448;8.612;2022-10-31T14:14:41;20.30;;;10.10;;
1106;SDS011;540;49.448;8.612;2022-10-31T14:17:17;16.63;;;10.77;;
1106;SDS011;540;49.448;8.612;2022-10-31T14:19:59;23.33;;;11.45;;
1106;SDS011;540;49.448;8.612;2022-10-31T14:22:29;19.17;;;11.88;;
1106;SDS011;540;49.448;8.612;2022-10-31T14:24:59;20.85;;;11.15;;
1106;SDS011;540;49.448;8.612;2022-10-31T14:27:43;19.08;;;9.65;;
1106;SDS011;540;49.448;8.612;2022-10-31T14:32:47;17.33;;;9.60;;
1106;SDS011;540;49.448;8.612;2022-10-31T14:35:19;23.23;;;9.73;;
1106;SDS011;540;49.448;8.612;2022-10-31T14:38:03;25.50;;;10.25;;
1106;SDS011;540;49.448;8.612;2022-10-31T14:40:45;18.30;;;10.60;;
1106;SDS011;540;49.448;8.612;2022-10-31T14:43:26;18.83;;;10.63;;
1106;SDS011;540;49.448;8.612;2022-10-31T14:46:06;26.67;;;12.45;;
1106;SDS011;540;49.448;8.612;2022-10-31T14:48:47;20.50;;;11.55;;
1106;SDS011;540;49.448;8.612;2022-10-31T14:51:35;21.02;;;11.48;;
1106;SDS011;540;49.448;8.612;2022-10-31T14:54:07;23.23;;;12.45;;
1106;SDS011;540;49.448;8.612;2022-10-31T14:56:43;20.45;;;10.93;;
1106;SDS011;540;49.448;8.612;2022-10-31T14:59:16;20.98;;;11.05;;
1106;SDS011;540;49.448;8.612;2022-10-31T15:01:51;22.40;;;11.07;;
1106;SDS011;540;49.448;8.612;2022-10-31T15:04:23;18.67;;;10.38;;
1106;SDS011;540;49.448;8.612;2022-10-31T15:06:54;17.67;;;10.23;;
1106;SDS011;540;49.448;8.612;2022-10-31T15:09:27;23.58;;;11.05;;
1106;SDS011;540;49.448;8.612;2022-10-31T15:11:57;19.50;;;11.48;;
1106;SDS011;540;49.448;8.612;2022-10-31T15:14:26;23.10;;;11.75;;
1106;SDS011;540;49.448;8.612;2022-10-31T15:16:55;20.88;;;10.98;;
1106;SDS011;540;49.448;8.612;2022-10-31T15:19:25;21.23;;;13.00;;
1106;SDS011;540;49.448;8.612;2022-10-31T15:21:56;21.25;;;11.32;;
1106;SDS011;540;49.448;8.612;2022-10-31T15:24:26;24.00;;;12.75;;
1106;SDS011;540;49.448;8.612;2022-10-31T15:27:00;22.23;;;13.07;;
1106;SDS011;540;49.448;8.612;2022-10-31T15:29:30;29.05;;;13.70;;
1106;SDS011;540;49.448;8.612;2022-10-31T15:31:59;22.20;;;12.65;;
1106;SDS011;540;49.448;8.612;2022-10-31T15:34:29;21.50;;;13.10;;
1106;SDS011;540;49.448;8.612;2022-10-31T15:37:02;23.38;;;13.00;;
1106;SDS011;540;49.448;8.612;2022-10-31T15:39:31;20.63;;;11.98;;
1106;SDS011;540;49.448;8.612;2022-10-31T15:42:00;24.55;;;12.77;;
1106;SDS011;540;49.448;8.612;2022-10-31T15:44:29;18.33;;;11.68;;
1106;SDS011;540;49.448;8.612;2022-10-31T15:47:01;20.55;;;11.95;;
1106;SDS011;540;49.448;8.612;2022-10-31T15:49:32;18.33;;;10.68;;
1106;SDS011;540;49.448;8.612;2022-10-31T15:52:06;23.83;;;12.10;;
1106;SDS011;540;49.448;8.612;2022-10-31T15:54:44;19.45;;;11.25;;
1106;SDS011;540;49.448;8.612;2022-10-31T15:57:15;21.45;;;12.45;;
1106;SDS011;540;49.448;8.612;2022-10-31T15:59:45;24.75;;;12.30;;
1106;SDS011;540;49.448;8.612;2022-10-31T16:02:15;20.80;;;10.90;;